createdAt,value
2023-04-11T00:01:52.027Z,6.90
2023-04-11T00:03:55.102Z,7.30
2023-04-11T00:05:57.226Z,7.43
2023-04-11T00:07:59.329Z,7.00
2023-04-11T00:10:02.214Z,7.87
2023-04-11T00:12:04.814Z,7.23
2023-04-11T00:14:09.078Z,7.90
2023-04-11T00:16:11.555Z,7.43
2023-04-11T00:18:13.742Z,7.70
2023-04-11T00:20:15.853Z,7.70
2023-04-11T00:22:18.013Z,7.10
2023-04-11T00:24:20.039Z,7.70
2023-04-11T00:26:22.285Z,7.40
2023-04-11T00:28:24.585Z,6.97
2023-04-11T00:30:26.837Z,8.10
2023-04-11T00:32:29.053Z,7.00
2023-04-11T00:34:31.497Z,7.47
2023-04-11T00:36:33.766Z,6.03
2023-04-11T00:38:36.382Z,7.47
2023-04-11T00:40:38.938Z,6.80
2023-04-11T00:42:40.987Z,7.60
2023-04-11T00:44:42.998Z,7.17
2023-04-11T00:46:46.371Z,6.53
2023-04-11T00:48:48.954Z,6.93
2023-04-11T00:50:51.123Z,6.70
2023-04-11T00:52:54.817Z,6.37
2023-04-11T00:54:56.969Z,6.50
2023-04-11T00:57:01.129Z,6.97
2023-04-11T00:59:03.467Z,6.67
2023-04-11T01:01:09.663Z,6.87
2023-04-11T01:03:12.088Z,7.00
2023-04-11T01:05:15.016Z,7.07
2023-04-11T01:07:17.536Z,6.43
2023-04-11T01:09:21.276Z,6.63
2023-04-11T01:11:23.962Z,6.43
2023-04-11T01:13:26.124Z,6.83
2023-04-11T01:15:28.419Z,6.90
2023-04-11T01:17:30.572Z,6.50
2023-04-11T01:19:32.797Z,6.83
2023-04-11T01:21:36.210Z,6.23
2023-04-11T01:23:38.249Z,7.20
2023-04-11T01:25:40.461Z,6.10
2023-04-11T01:27:43.169Z,6.20
2023-04-11T01:29:45.330Z,6.00
2023-04-11T01:31:47.377Z,6.27
2023-04-11T01:33:49.466Z,6.03
2023-04-11T01:35:52.597Z,5.90
2023-04-11T01:37:55.946Z,5.87
2023-04-11T01:39:58.019Z,6.20
2023-04-11T01:42:01.167Z,6.80
2023-04-11T01:44:04.170Z,8.03
2023-04-11T01:46:07.769Z,7.30
2023-04-11T01:48:14.212Z,7.20
2023-04-11T01:50:16.340Z,7.03
2023-04-11T01:52:18.411Z,9.00
2023-04-11T01:54:20.709Z,7.40
2023-04-11T01:56:22.859Z,7.60
2023-04-11T01:58:24.904Z,8.00
2023-04-11T02:00:26.965Z,7.80
2023-04-11T02:02:29.283Z,8.60
2023-04-11T02:04:31.346Z,8.90
2023-04-11T02:06:33.520Z,9.17
2023-04-11T02:08:35.644Z,8.53
2023-04-11T02:10:37.743Z,8.33
2023-04-11T02:12:39.750Z,8.10
2023-04-11T02:14:43.391Z,8.83
2023-04-11T02:16:51.958Z,9.47
2023-04-11T02:18:54.340Z,8.20
2023-04-11T02:20:56.980Z,8.87
2023-04-11T02:22:59.077Z,8.90
2023-04-11T02:25:01.102Z,8.60
2023-04-11T02:27:06.573Z,8.37
2023-04-11T02:29:08.896Z,10.23
2023-04-11T02:31:11.194Z,8.63
2023-04-11T02:33:13.844Z,9.73
2023-04-11T02:35:16.761Z,9.00
2023-04-11T02:37:18.800Z,9.10
2023-04-11T02:39:24.234Z,9.57
2023-04-11T02:41:26.287Z,9.00
2023-04-11T02:43:29.252Z,10.17
2023-04-11T02:45:31.743Z,9.67
2023-04-11T02:47:36.012Z,9.70
2023-04-11T02:49:44.069Z,9.00
2023-04-11T02:51:49.108Z,10.43
2023-04-11T02:53:52.241Z,10.57
2023-04-11T02:55:55.541Z,9.70
2023-04-11T02:57:58.545Z,9.70
2023-04-11T03:00:00.705Z,10.50
2023-04-11T03:02:13.486Z,10.60
2023-04-11T03:04:15.700Z,11.17
2023-04-11T03:06:33.311Z,10.70
2023-04-11T03:08:37.416Z,10.57
2023-04-11T03:10:39.734Z,11.13
2023-04-11T03:12:45.207Z,10.43
2023-04-11T03:14:48.307Z,10.13
2023-04-11T03:16:50.661Z,10.73
2023-04-11T03:18:52.845Z,10.60
2023-04-11T03:20:56.112Z,10.07
2023-04-11T03:22:58.373Z,10.70
2023-04-11T03:25:00.652Z,11.03
2023-04-11T03:27:02.879Z,9.93
2023-04-11T03:29:06.162Z,10.83
2023-04-11T03:31:17.796Z,9.37
2023-04-11T03:33:20.867Z,10.60
2023-04-11T03:35:22.929Z,9.80
2023-04-11T03:37:25.703Z,10.87
2023-04-11T03:39:27.650Z,9.87
2023-04-11T03:41:32.314Z,10.20
2023-04-11T03:43:34.594Z,12.30
2023-04-11T03:45:37.356Z,10.57
2023-04-11T03:47:43.293Z,9.50
2023-04-11T03:49:47.322Z,10.20
2023-04-11T03:51:50.901Z,11.63
2023-04-11T03:53:53.230Z,10.30
2023-04-11T03:56:04.199Z,10.63
2023-04-11T03:58:11.533Z,9.60
2023-04-11T04:00:15.898Z,9.73
2023-04-11T04:02:23.548Z,10.57
2023-04-11T04:04:27.597Z,10.40
2023-04-11T04:06:40.786Z,11.93
2023-04-11T04:08:43.706Z,11.23
2023-04-11T04:10:47.081Z,10.30
2023-04-11T04:12:49.966Z,11.23
2023-04-11T04:14:55.251Z,10.90
2023-04-11T04:16:57.279Z,11.17
2023-04-11T04:19:02.548Z,11.27
2023-04-11T04:21:07.243Z,10.80
2023-04-11T04:23:09.356Z,11.50
2023-04-11T04:25:35.301Z,10.63
2023-04-11T04:27:37.545Z,10.50
2023-04-11T04:29:46.345Z,11.70
2023-04-11T04:31:57.073Z,10.30
2023-04-11T04:34:10.642Z,10.10
2023-04-11T04:36:20.195Z,11.80
2023-04-11T04:38:28.234Z,10.07
2023-04-11T04:40:37.991Z,10.43
2023-04-11T04:42:42.188Z,11.20
2023-04-11T04:44:44.817Z,12.27
2023-04-11T04:46:55.093Z,11.80
2023-04-11T04:49:02.101Z,10.27
2023-04-11T04:51:05.417Z,10.73
2023-04-11T04:53:09.602Z,12.13
2023-04-11T04:55:16.948Z,11.67
2023-04-11T04:57:19.248Z,12.07
2023-04-11T04:59:21.269Z,10.50
2023-04-11T05:01:29.783Z,10.80
2023-04-11T05:03:36.092Z,11.87
2023-04-11T05:05:40.564Z,11.97
2023-04-11T05:07:42.847Z,12.13
2023-04-11T05:09:44.998Z,11.03
2023-04-11T05:11:56.631Z,10.93
2023-04-11T05:13:58.783Z,10.80
2023-04-11T05:16:02.359Z,11.30
2023-04-11T05:18:04.527Z,11.30
2023-04-11T05:20:10.256Z,10.57
2023-04-11T05:22:13.158Z,10.70
2023-04-11T05:24:20.333Z,10.50
2023-04-11T05:26:22.376Z,10.00
2023-04-11T05:28:24.437Z,10.70
2023-04-11T05:30:26.871Z,10.63
2023-04-11T05:32:29.784Z,11.03
2023-04-11T05:34:33.303Z,9.87
2023-04-11T05:36:36.741Z,10.80
2023-04-11T05:38:38.737Z,10.90
2023-04-11T05:40:41.004Z,11.63
2023-04-11T05:42:43.034Z,10.33
2023-04-11T05:44:45.025Z,10.50
2023-04-11T05:46:47.053Z,10.13
2023-04-11T05:48:49.125Z,9.83
2023-04-11T05:50:51.456Z,9.97
2023-04-11T05:52:53.434Z,11.23
2023-04-11T05:54:55.444Z,10.20
2023-04-11T05:56:57.446Z,8.73
2023-04-11T05:58:59.561Z,9.43
2023-04-11T06:01:01.644Z,10.23
2023-04-11T06:03:05.267Z,7.93
2023-04-11T06:05:08.230Z,9.20
2023-04-11T06:07:11.030Z,9.33
2023-04-11T06:09:13.594Z,8.53
2023-04-11T06:11:16.028Z,8.03
2023-04-11T06:13:18.139Z,9.07
2023-04-11T06:15:21.468Z,8.80
2023-04-11T06:17:23.626Z,8.30
2023-04-11T06:19:25.752Z,8.40
2023-04-11T06:21:27.825Z,9.57
2023-04-11T06:23:29.826Z,8.47
2023-04-11T06:25:32.050Z,8.70
2023-04-11T06:27:34.091Z,8.67
2023-04-11T06:29:37.038Z,9.50
2023-04-11T06:31:40.369Z,8.07
2023-04-11T06:33:42.465Z,8.80
2023-04-11T06:35:44.508Z,6.97
2023-04-11T06:37:46.581Z,7.20
2023-04-11T06:39:48.588Z,7.20
2023-04-11T06:41:51.283Z,6.30
2023-04-11T06:43:59.836Z,6.20
2023-04-11T06:46:01.907Z,5.93
2023-04-11T06:48:04.119Z,6.60
2023-04-11T06:50:06.786Z,6.47
2023-04-11T06:52:08.801Z,6.57
2023-04-11T06:54:10.884Z,6.57
2023-04-11T06:56:12.858Z,5.47
2023-04-11T06:58:14.952Z,5.10
2023-04-11T07:00:17.509Z,5.30
2023-04-11T07:02:19.708Z,5.60
2023-04-11T07:04:22.162Z,4.90
2023-04-11T07:06:24.213Z,5.60
2023-04-11T07:08:26.192Z,4.50
2023-04-11T07:10:28.251Z,5.30
2023-04-11T07:12:30.578Z,5.40
2023-04-11T07:14:32.739Z,4.97
2023-04-11T07:16:34.925Z,4.17
2023-04-11T07:18:37.734Z,4.77
2023-04-11T07:20:39.986Z,4.60
2023-04-11T07:22:45.207Z,4.50
2023-04-11T07:24:51.717Z,4.60
2023-04-11T07:26:54.375Z,4.70
2023-04-11T07:28:56.368Z,4.50
2023-04-11T07:30:58.420Z,4.33
2023-04-11T07:33:00.726Z,4.20
2023-04-11T07:35:02.714Z,3.97
2023-04-11T07:37:04.810Z,3.70
2023-04-11T07:39:09.392Z,3.60
2023-04-11T07:41:11.426Z,3.70
2023-04-11T07:43:13.584Z,4.00
2023-04-11T07:45:15.884Z,3.37
2023-04-11T07:47:17.866Z,3.80
2023-04-11T07:49:19.831Z,3.63
2023-04-11T07:51:21.914Z,3.77
2023-04-11T07:53:24.193Z,3.77
2023-04-11T07:55:26.346Z,3.90
2023-04-11T07:57:29.355Z,3.70
2023-04-11T07:59:31.746Z,3.40
2023-04-11T08:01:33.814Z,3.10
2023-04-11T08:03:36.269Z,3.10
2023-04-11T08:05:38.844Z,3.13
2023-04-11T08:07:41.876Z,3.40
2023-04-11T08:09:44.156Z,2.70
2023-04-11T08:11:46.356Z,2.60
2023-04-11T08:13:48.514Z,3.00
2023-04-11T08:15:50.562Z,2.50
2023-04-11T08:17:56.542Z,2.30
2023-04-11T08:20:01.719Z,2.67
2023-04-11T08:22:04.717Z,2.23
2023-04-11T08:24:08.239Z,2.20
2023-04-11T08:26:12.026Z,1.87
2023-04-11T08:28:15.203Z,2.10
2023-04-11T08:30:17.850Z,2.20
2023-04-11T08:32:20.147Z,2.13
2023-04-11T08:34:22.488Z,10.10
2023-04-11T08:36:24.622Z,1.80
2023-04-11T08:38:26.841Z,1.80
2023-04-11T08:40:29.089Z,2.30
2023-04-11T08:42:31.331Z,2.20
2023-04-11T08:44:33.565Z,2.50
2023-04-11T08:46:41.242Z,2.07
2023-04-11T08:48:43.271Z,3.60
2023-04-11T08:50:45.343Z,2.77
2023-04-11T08:52:48.767Z,2.23
2023-04-11T08:54:56.266Z,6.07
2023-04-11T08:56:58.301Z,2.80
2023-04-11T08:59:00.329Z,2.13
2023-04-11T09:01:25.353Z,2.50
2023-04-11T09:03:27.403Z,2.60
2023-04-11T09:05:38.309Z,2.40
2023-04-11T09:07:52.368Z,3.03
2023-04-11T09:09:54.473Z,1.97
2023-04-11T09:11:56.475Z,3.10
2023-04-11T09:14:08.847Z,2.33
2023-04-11T09:16:14.253Z,2.30
2023-04-11T09:18:33.781Z,2.50
2023-04-11T09:20:36.440Z,3.07
2023-04-11T09:22:38.479Z,2.30
2023-04-11T09:24:40.790Z,2.57
2023-04-11T09:26:43.073Z,2.60
2023-04-11T09:28:54.612Z,3.20
2023-04-11T09:30:57.007Z,3.17
2023-04-11T09:32:59.169Z,3.33
2023-04-11T09:35:24.013Z,3.03
2023-04-11T09:37:26.313Z,2.83
2023-04-11T09:39:29.530Z,2.97
2023-04-11T09:41:33.764Z,3.70
2023-04-11T09:43:58.314Z,2.70
2023-04-11T09:46:11.788Z,2.87
2023-04-11T09:48:14.246Z,2.90
2023-04-11T09:50:16.948Z,2.30
2023-04-11T09:52:19.309Z,2.17
2023-04-11T09:54:24.622Z,1.77
2023-04-11T09:56:27.366Z,1.70
2023-04-11T09:58:34.116Z,1.57
2023-04-11T10:00:36.483Z,1.90
2023-04-11T10:02:38.822Z,1.70
2023-04-11T10:04:41.217Z,1.60
2023-04-11T10:07:14.254Z,1.70
2023-04-11T10:09:16.874Z,1.83
2023-04-11T10:11:23.039Z,1.70
2023-04-11T10:13:35.848Z,1.63
2023-04-11T10:15:38.079Z,2.10
2023-04-11T10:17:41.113Z,1.80
2023-04-11T10:19:47.309Z,1.50
2023-04-11T10:21:49.440Z,1.63
2023-04-11T10:24:11.878Z,1.53
2023-04-11T10:26:14.989Z,2.10
2023-04-11T10:28:38.495Z,2.07
2023-04-11T10:30:40.834Z,2.00
2023-04-11T10:33:09.736Z,1.87
2023-04-11T10:35:21.762Z,1.70
2023-04-11T10:37:33.953Z,2.07
2023-04-11T10:39:48.166Z,1.73
2023-04-11T10:41:50.893Z,1.67
2023-04-11T10:44:21.220Z,1.60
2023-04-11T10:46:25.272Z,1.50
2023-04-11T10:48:27.457Z,1.73
2023-04-11T10:50:33.363Z,1.63
2023-04-11T10:52:38.654Z,1.80
2023-04-11T10:54:40.868Z,1.50
2023-04-11T10:56:43.040Z,1.50
2023-04-11T10:58:45.168Z,1.40
2023-04-11T11:00:49.843Z,1.90
2023-04-11T11:02:52.398Z,1.83
2023-04-11T11:04:54.826Z,1.90
2023-04-11T11:06:58.497Z,1.70
2023-04-11T11:09:00.703Z,1.50
2023-04-11T11:11:04.567Z,1.70
2023-04-11T11:13:07.042Z,2.00
2023-04-11T11:15:15.750Z,1.77
2023-04-11T11:17:17.983Z,1.63
2023-04-11T11:19:20.364Z,1.50
2023-04-11T11:21:27.820Z,1.50
2023-04-11T11:23:30.825Z,1.70
2023-04-11T11:25:33.541Z,1.77
2023-04-11T11:27:35.926Z,1.20
2023-04-11T11:29:38.181Z,1.57
2023-04-11T11:31:48.031Z,1.50
2023-04-11T11:33:50.280Z,1.50
2023-04-11T11:35:57.838Z,1.53
2023-04-11T11:38:00.417Z,1.70
2023-04-11T11:40:05.902Z,2.13
2023-04-11T11:42:08.167Z,1.83
2023-04-11T11:44:24.593Z,1.90
2023-04-11T11:46:30.195Z,1.60
2023-04-11T11:48:32.551Z,2.13
2023-04-11T11:50:34.803Z,2.00
2023-04-11T11:52:40.463Z,1.87
2023-04-11T11:54:46.560Z,1.90
2023-04-11T11:56:52.836Z,1.60
2023-04-11T11:58:55.470Z,2.00
2023-04-11T12:00:57.882Z,1.90
2023-04-11T12:03:00.861Z,1.83
2023-04-11T12:05:06.320Z,1.80
2023-04-11T12:07:10.444Z,2.13
2023-04-11T12:09:12.682Z,2.27
2023-04-11T12:11:15.962Z,1.93
2023-04-11T12:13:20.609Z,1.77
2023-04-11T12:15:24.431Z,2.07
2023-04-11T12:17:36.294Z,1.40
2023-04-11T12:19:42.466Z,1.87
2023-04-11T12:21:44.647Z,1.80
2023-04-11T12:23:46.773Z,2.00
2023-04-11T12:25:48.946Z,2.50
2023-04-11T12:27:51.248Z,1.70
2023-04-11T12:29:53.427Z,1.90
2023-04-11T12:31:55.908Z,1.60
2023-04-11T12:33:58.452Z,1.70
2023-04-11T12:36:01.800Z,2.10
2023-04-11T12:38:04.381Z,1.90
2023-04-11T12:40:10.947Z,1.83
2023-04-11T12:42:15.100Z,1.93
2023-04-11T12:44:18.930Z,2.00
2023-04-11T12:46:21.183Z,1.77
2023-04-11T12:48:23.623Z,1.90
2023-04-11T12:50:25.869Z,2.63
2023-04-11T12:52:28.942Z,1.87
2023-04-11T12:54:32.371Z,2.07
2023-04-11T12:56:34.696Z,2.17
2023-04-11T12:58:36.800Z,1.87
2023-04-11T13:00:39.013Z,2.10
2023-04-11T13:02:44.593Z,2.40
2023-04-11T13:04:54.645Z,1.93
2023-04-11T13:07:01.121Z,2.30
2023-04-11T13:09:07.809Z,1.80
2023-04-11T13:11:10.164Z,1.90
2023-04-11T13:15:19.397Z,2.10
2023-04-11T13:17:21.688Z,2.13
2023-04-11T13:19:24.102Z,1.83
2023-04-11T13:21:26.759Z,2.00
2023-04-11T13:23:28.937Z,2.43
2023-04-11T13:25:31.153Z,2.20
2023-04-11T13:27:34.137Z,2.10
2023-04-11T13:29:36.472Z,2.27
2023-04-11T13:31:38.801Z,2.30
2023-04-11T13:33:41.058Z,1.90
2023-04-11T13:35:43.327Z,2.27
2023-04-11T13:37:45.930Z,2.33
2023-04-11T13:39:48.456Z,1.70
2023-04-11T13:41:50.581Z,2.10
2023-04-11T13:43:52.894Z,1.83
2023-04-11T13:45:55.134Z,2.20
2023-04-11T13:47:58.074Z,1.90
2023-04-11T13:50:00.314Z,2.17
2023-04-11T13:52:02.567Z,1.90
2023-04-11T13:54:04.890Z,1.53
2023-04-11T13:56:07.939Z,2.40
2023-04-11T13:58:10.245Z,1.80
2023-04-11T14:00:13.014Z,3.00
2023-04-11T14:02:15.292Z,2.40
2023-04-11T14:04:17.538Z,1.90
2023-04-11T14:06:19.882Z,1.60
2023-04-11T14:08:22.101Z,1.90
2023-04-11T14:10:24.344Z,2.50
2023-04-11T14:12:27.218Z,1.50
2023-04-11T14:14:30.222Z,1.80
2023-04-11T14:16:32.449Z,1.53
2023-04-11T14:18:34.726Z,1.80
2023-04-11T14:20:36.936Z,1.80
2023-04-11T14:22:39.137Z,1.97
2023-04-11T14:24:41.747Z,1.63
2023-04-11T14:26:43.862Z,2.07
2023-04-11T14:28:46.436Z,1.67
2023-04-11T14:30:48.954Z,2.07
2023-04-11T14:32:51.402Z,1.70
2023-04-11T14:34:53.727Z,1.73
2023-04-11T14:36:55.934Z,1.70
2023-04-11T14:38:58.112Z,1.50
2023-04-11T14:41:00.410Z,1.70
2023-04-11T14:43:02.758Z,1.70
2023-04-11T14:45:06.030Z,1.87
2023-04-11T14:47:08.574Z,1.83
2023-04-11T14:49:10.799Z,1.73
2023-04-11T14:51:13.016Z,1.60
2023-04-11T14:53:15.334Z,1.57
2023-04-11T14:55:19.053Z,1.37
2023-04-11T14:57:22.710Z,1.67
2023-04-11T14:59:26.142Z,1.67
2023-04-11T15:01:28.395Z,1.90
2023-04-11T15:03:30.980Z,1.43
2023-04-11T15:05:33.262Z,1.50
2023-04-11T15:07:36.546Z,2.13
2023-04-11T15:09:38.831Z,1.60
2023-04-11T15:11:41.117Z,1.97
2023-04-11T15:13:47.851Z,2.23
2023-04-11T15:15:50.174Z,1.70
2023-04-11T15:18:22.263Z,2.37
2023-04-11T15:20:24.874Z,1.80
2023-04-11T15:22:27.277Z,1.60
2023-04-11T15:24:29.440Z,1.80
2023-04-11T15:26:32.378Z,1.37
2023-04-11T15:28:39.282Z,1.50
2023-04-11T15:30:50.988Z,1.50
2023-04-11T15:32:53.281Z,1.70
2023-04-11T15:34:56.680Z,1.57
2023-04-11T15:36:59.729Z,1.70
2023-04-11T15:39:02.004Z,1.70
2023-04-11T15:41:04.376Z,1.67
2023-04-11T15:43:06.798Z,1.80
2023-04-11T15:45:09.380Z,2.60
2023-04-11T15:47:11.939Z,1.53
2023-04-11T15:49:14.146Z,2.47
2023-04-11T15:51:17.240Z,2.50
2023-04-11T15:53:19.518Z,2.23
2023-04-11T15:55:22.553Z,2.43
2023-04-11T15:57:24.861Z,2.67
2023-04-11T15:59:27.194Z,2.33
2023-04-11T16:01:30.127Z,2.23
2023-04-11T16:03:32.842Z,1.90
2023-04-11T16:05:38.267Z,1.97
2023-04-11T16:07:41.334Z,1.80
2023-04-11T16:09:43.473Z,2.27
2023-04-11T16:11:45.798Z,2.40
2023-04-11T16:13:48.509Z,2.13
2023-04-11T16:15:50.810Z,2.03
2023-04-11T16:17:52.998Z,2.20
2023-04-11T16:19:55.314Z,2.17
2023-04-11T16:21:57.515Z,2.07
2023-04-11T16:23:59.910Z,1.67
2023-04-11T16:26:02.249Z,2.23
2023-04-11T16:28:04.467Z,2.17
2023-04-11T16:30:07.725Z,1.67
2023-04-11T16:32:10.588Z,2.27
2023-04-11T16:34:12.831Z,2.47
2023-04-11T16:36:15.590Z,2.00
2023-04-11T16:38:18.186Z,1.90
2023-04-11T16:40:20.933Z,1.90
2023-04-11T16:42:23.674Z,1.83
2023-04-11T16:44:25.837Z,1.80
2023-04-11T16:46:28.021Z,1.57
2023-04-11T16:48:31.612Z,1.97
2023-04-11T16:50:33.910Z,1.70
2023-04-11T16:52:36.088Z,2.00
2023-04-11T16:54:38.324Z,2.17
2023-04-11T16:56:40.906Z,1.70
2023-04-11T16:58:43.115Z,1.60
2023-04-11T17:00:45.621Z,2.00
2023-04-11T17:02:47.863Z,1.70
2023-04-11T17:04:50.095Z,1.97
2023-04-11T17:06:52.218Z,1.57
2023-04-11T17:08:54.404Z,1.77
2023-04-11T17:11:07.198Z,1.80
2023-04-11T17:13:11.667Z,1.73
2023-04-11T17:15:13.895Z,1.90
2023-04-11T17:17:16.227Z,2.10
2023-04-11T17:19:18.537Z,1.87
2023-04-11T17:21:21.203Z,1.60
2023-04-11T17:23:35.071Z,2.00
2023-04-11T17:25:43.845Z,2.17
2023-04-11T17:27:46.170Z,1.83
2023-04-11T17:29:48.531Z,2.20
2023-04-11T17:31:50.672Z,1.83
2023-04-11T17:33:52.801Z,1.90
2023-04-11T17:35:55.072Z,1.80
2023-04-11T17:37:57.303Z,2.03
2023-04-11T17:39:59.537Z,1.60
2023-04-11T17:42:02.108Z,2.10
2023-04-11T17:44:04.331Z,2.10
2023-04-11T17:46:07.461Z,1.93
2023-04-11T17:48:09.774Z,1.83
2023-04-11T17:50:13.168Z,1.83
2023-04-11T17:52:15.372Z,2.00
2023-04-11T17:54:17.580Z,1.90
2023-04-11T17:56:20.479Z,3.13
2023-04-11T17:58:22.890Z,2.33
2023-04-11T18:00:26.563Z,1.90
2023-04-11T18:02:29.419Z,2.30
2023-04-11T18:04:32.360Z,2.13
2023-04-11T18:06:34.739Z,2.47
2023-04-11T18:10:45.364Z,2.20
2023-04-11T18:12:49.131Z,2.00
2023-04-11T18:14:54.208Z,2.20
2023-04-11T18:16:56.911Z,2.50
2023-04-11T18:18:59.173Z,2.10
2023-04-11T18:21:07.060Z,2.50
2023-04-11T18:23:09.719Z,2.70
2023-04-11T18:25:12.462Z,2.20
2023-04-11T18:27:14.650Z,2.30
2023-04-11T18:29:17.081Z,2.50
2023-04-11T18:31:19.338Z,2.03
2023-04-11T18:33:21.650Z,2.20
2023-04-11T18:35:24.012Z,2.23
2023-04-11T18:37:29.095Z,2.20
2023-04-11T18:39:31.498Z,2.40
2023-04-11T18:41:33.677Z,2.17
2023-04-11T18:43:38.073Z,2.10
2023-04-11T18:45:42.359Z,2.90
2023-04-11T18:47:46.476Z,2.60
2023-04-11T18:49:48.823Z,2.80
2023-04-11T18:51:52.794Z,2.63
2023-04-11T18:53:56.259Z,3.00
2023-04-11T18:56:03.017Z,2.63
2023-04-11T18:58:06.963Z,2.63
2023-04-11T19:00:18.174Z,3.00
2023-04-11T19:02:21.542Z,2.43
2023-04-11T19:04:24.668Z,2.70
2023-04-11T19:06:26.950Z,2.50
2023-04-11T19:08:29.131Z,2.63
2023-04-11T19:10:31.359Z,2.33
2023-04-11T19:12:33.787Z,2.70
2023-04-11T19:14:36.643Z,2.80
2023-04-11T19:16:38.884Z,3.10
2023-04-11T19:18:41.148Z,3.27
2023-04-11T19:20:43.435Z,3.53
2023-04-11T19:22:46.393Z,3.57
2023-04-11T19:24:49.874Z,3.13
2023-04-11T19:26:52.780Z,2.80
2023-04-11T19:28:55.469Z,3.30
2023-04-11T19:30:57.620Z,3.10
2023-04-11T19:33:01.213Z,3.33
2023-04-11T19:35:04.072Z,3.80
2023-04-11T19:37:06.948Z,5.23
2023-04-11T19:39:10.664Z,5.17
2023-04-11T19:41:14.071Z,3.30
2023-04-11T19:43:16.424Z,3.20
2023-04-11T19:45:18.988Z,3.13
2023-04-11T19:47:21.229Z,3.10
2023-04-11T19:49:23.497Z,2.70
2023-04-11T19:51:26.433Z,3.20
2023-04-11T19:53:28.669Z,2.80
2023-04-11T19:55:31.315Z,2.83
2023-04-11T19:57:33.626Z,3.47
2023-04-11T19:59:35.783Z,2.20
2023-04-11T20:01:38.129Z,2.20
2023-04-11T20:03:40.719Z,2.67
2023-04-11T20:05:44.136Z,2.50
2023-04-11T20:07:47.024Z,2.70
2023-04-11T20:09:49.214Z,2.53
2023-04-11T20:11:51.532Z,2.40
2023-04-11T20:13:53.696Z,2.67
2023-04-11T20:15:55.964Z,2.53
2023-04-11T20:17:58.463Z,2.10
2023-04-11T20:20:05.547Z,2.50
2023-04-11T20:22:10.813Z,2.30
2023-04-11T20:24:12.975Z,2.60
2023-04-11T20:26:15.215Z,2.43
2023-04-11T20:28:17.462Z,2.30
2023-04-11T20:30:19.772Z,2.40
2023-04-11T20:32:22.010Z,2.60
2023-04-11T20:34:24.202Z,2.67
2023-04-11T20:36:27.483Z,2.53
2023-04-11T20:38:31.334Z,2.37
2023-04-11T20:40:33.535Z,2.50
2023-04-11T20:42:39.851Z,2.47
2023-04-11T20:44:42.678Z,2.60
2023-04-11T20:46:46.166Z,2.40
2023-04-11T20:48:50.003Z,2.60
2023-04-11T20:50:55.829Z,2.53
2023-04-11T20:52:58.050Z,2.80
2023-04-11T20:55:01.092Z,2.73
2023-04-11T20:57:03.610Z,3.10
2023-04-11T20:59:07.209Z,2.80
2023-04-11T21:01:09.410Z,2.83
2023-04-11T21:03:11.813Z,2.80
2023-04-11T21:05:14.927Z,2.70
2023-04-11T21:07:18.053Z,3.00
2023-04-11T21:09:20.235Z,3.40
2023-04-11T21:11:22.657Z,4.50
2023-04-11T21:13:24.870Z,3.40
2023-04-11T21:15:27.222Z,3.07
2023-04-11T21:17:32.854Z,4.10
2023-04-11T21:19:38.242Z,3.23
2023-04-11T21:21:40.868Z,3.80
2023-04-11T21:23:43.656Z,3.20
2023-04-11T21:25:45.966Z,3.57
2023-04-11T21:27:48.317Z,3.40
2023-04-11T21:29:50.615Z,2.97
2023-04-11T21:31:52.955Z,2.93
2023-04-11T21:33:55.542Z,3.20
2023-04-11T21:35:58.002Z,3.07
2023-04-11T21:38:00.355Z,3.07
2023-04-11T21:40:02.993Z,2.73
2023-04-11T21:42:05.290Z,2.80
2023-04-11T21:44:07.371Z,2.90
2023-04-11T21:46:09.683Z,2.90
2023-04-11T21:48:11.947Z,2.80
2023-04-11T21:50:14.206Z,3.37
2023-04-11T21:52:16.404Z,3.33
2023-04-11T21:54:18.579Z,3.00
2023-04-11T21:56:21.254Z,3.10
2023-04-11T21:58:29.035Z,3.30
2023-04-11T22:00:32.279Z,2.60
2023-04-11T22:02:35.736Z,3.33
2023-04-11T22:04:47.824Z,2.90
2023-04-11T22:06:59.356Z,2.83
2023-04-11T22:09:03.351Z,3.47
2023-04-11T22:11:10.327Z,2.33
2023-04-11T22:13:17.420Z,2.80
2023-04-11T22:15:19.613Z,2.83
2023-04-11T22:17:22.589Z,2.70
2023-04-11T22:19:24.950Z,3.00
2023-04-11T22:21:28.507Z,2.77
2023-04-11T22:23:30.634Z,3.00
2023-04-11T22:25:34.655Z,3.10
2023-04-11T22:27:38.470Z,3.20
2023-04-11T22:29:41.478Z,3.30
2023-04-11T22:31:43.791Z,3.57
2023-04-11T22:33:45.854Z,2.60
2023-04-11T22:35:47.971Z,3.67
2023-04-11T22:37:50.207Z,3.50
2023-04-11T22:39:52.249Z,3.27
2023-04-11T22:41:54.608Z,2.73
2023-04-11T22:43:56.895Z,3.17
2023-04-11T22:45:59.196Z,2.87
2023-04-11T22:48:06.098Z,3.23
2023-04-11T22:50:09.298Z,2.77
2023-04-11T22:52:15.135Z,3.10
2023-04-11T22:54:17.331Z,3.60
2023-04-11T22:56:19.282Z,3.40
2023-04-11T22:58:21.335Z,3.10
2023-04-11T23:00:24.149Z,3.97
2023-04-11T23:02:31.599Z,2.90
2023-04-11T23:04:34.044Z,3.30
2023-04-11T23:06:36.030Z,3.30
2023-04-11T23:08:38.058Z,2.90
2023-04-11T23:10:40.614Z,3.47
2023-04-11T23:12:42.829Z,3.63
2023-04-11T23:14:46.577Z,3.43
2023-04-11T23:16:48.698Z,3.93
2023-04-11T23:18:50.713Z,3.80
2023-04-11T23:20:53.078Z,3.87
2023-04-11T23:22:55.459Z,4.30
2023-04-11T23:24:57.831Z,4.30
2023-04-11T23:26:59.830Z,4.00
2023-04-11T23:29:04.871Z,3.90
2023-04-11T23:31:07.924Z,4.20
2023-04-11T23:33:10.118Z,3.40
2023-04-11T23:35:12.875Z,3.03
2023-04-11T23:37:14.827Z,4.63
2023-04-11T23:39:16.857Z,4.10
2023-04-11T23:41:18.905Z,4.00
2023-04-11T23:43:21.143Z,4.27
2023-04-11T23:45:23.405Z,4.60
2023-04-11T23:47:25.615Z,3.43
2023-04-11T23:49:27.736Z,4.17
2023-04-11T23:51:29.955Z,4.67
2023-04-11T23:53:32.398Z,4.13
2023-04-11T23:55:35.198Z,3.87
2023-04-11T23:57:37.366Z,4.07
2023-04-11T23:59:39.565Z,4.50
